createdAt,value
2019-05-06T00:00:58.753Z,5.35
2019-05-06T00:03:24.777Z,5.40
2019-05-06T00:05:54.368Z,6.20
2019-05-06T00:08:23.666Z,5.85
2019-05-06T00:10:54.087Z,5.67
2019-05-06T00:13:24.164Z,6.05
2019-05-06T00:15:54.379Z,6.50
2019-05-06T00:18:24.496Z,5.20
2019-05-06T00:20:54.822Z,5.55
2019-05-06T00:23:25.041Z,6.20
2019-05-06T00:26:13.514Z,6.40
2019-05-06T00:28:58.279Z,7.53
2019-05-06T00:31:26.678Z,5.85
2019-05-06T00:33:55.073Z,6.22
2019-05-06T00:36:23.853Z,5.80
2019-05-06T00:38:54.074Z,5.75
2019-05-06T00:41:29.810Z,6.12
2019-05-06T00:43:58.443Z,6.47
2019-05-06T00:46:26.847Z,6.15
2019-05-06T00:48:55.252Z,5.58
2019-05-06T00:51:24.335Z,7.15
2019-05-06T00:54:14.256Z,7.53
2019-05-06T00:56:44.633Z,6.65
2019-05-06T00:59:14.341Z,6.65
2019-05-06T01:01:43.516Z,6.62
2019-05-06T01:04:13.953Z,5.47
2019-05-06T01:06:44.075Z,6.87
2019-05-06T01:09:14.470Z,5.12
2019-05-06T01:11:44.890Z,6.15
2019-05-06T01:14:23.434Z,5.60
2019-05-06T01:16:51.676Z,5.87
2019-05-06T01:19:20.046Z,6.40
2019-05-06T01:21:48.467Z,6.17
2019-05-06T01:24:17.103Z,5.90
2019-05-06T01:26:45.494Z,7.35
2019-05-06T01:29:14.557Z,6.35
2019-05-06T01:31:45.909Z,7.03
2019-05-06T01:34:13.826Z,7.20
2019-05-06T01:36:43.761Z,5.58
2019-05-06T01:39:19.657Z,6.47
2019-05-06T01:41:53.673Z,7.08
2019-05-06T01:44:24.287Z,5.80
2019-05-06T01:46:54.065Z,5.28
2019-05-06T01:49:24.366Z,6.83
2019-05-06T01:51:54.607Z,7.10
2019-05-06T01:54:24.770Z,6.55
2019-05-06T01:56:53.807Z,6.05
2019-05-06T01:59:24.447Z,5.80
2019-05-06T02:01:58.128Z,7.35
2019-05-06T02:04:24.308Z,6.35
2019-05-06T02:06:54.573Z,6.53
2019-05-06T02:09:24.710Z,6.25
2019-05-06T02:11:53.629Z,7.45
2019-05-06T02:14:24.483Z,6.55
2019-05-06T02:16:54.354Z,6.20
2019-05-06T02:19:24.200Z,6.87
2019-05-06T02:21:54.731Z,6.00
2019-05-06T02:24:27.753Z,5.95
2019-05-06T02:26:56.167Z,5.70
2019-05-06T02:29:26.904Z,4.95
2019-05-06T02:32:24.779Z,6.05
2019-05-06T02:34:54.636Z,6.08
2019-05-06T02:37:28.730Z,5.35
2019-05-06T02:39:57.132Z,5.17
2019-05-06T02:42:25.519Z,5.15
2019-05-06T02:44:54.506Z,6.78
2019-05-06T02:47:24.783Z,7.62
2019-05-06T02:49:54.967Z,5.55
2019-05-06T02:52:23.387Z,5.75
2019-05-06T02:54:53.611Z,5.62
2019-05-06T02:57:23.850Z,5.90
2019-05-06T02:59:55.410Z,5.80
2019-05-06T03:02:38.026Z,5.85
2019-05-06T03:04:52.987Z,6.15
2019-05-06T03:07:23.290Z,6.80
2019-05-06T03:09:53.243Z,6.45
2019-05-06T03:12:22.894Z,6.17
2019-05-06T03:14:53.231Z,7.37
2019-05-06T03:17:23.471Z,7.25
2019-05-06T03:19:53.415Z,7.50
2019-05-06T03:22:34.421Z,6.90
2019-05-06T03:25:06.832Z,6.90
2019-05-06T03:27:34.270Z,7.33
2019-05-06T03:30:04.081Z,7.58
2019-05-06T03:32:41.151Z,7.10
2019-05-06T03:35:24.843Z,7.33
2019-05-06T03:37:33.609Z,7.20
2019-05-06T03:40:02.935Z,7.10
2019-05-06T03:42:33.471Z,8.25
2019-05-06T03:45:04.404Z,6.75
2019-05-06T03:47:34.888Z,6.72
2019-05-06T03:50:04.960Z,7.53
2019-05-06T03:52:34.195Z,8.05
2019-05-06T03:55:03.773Z,6.78
2019-05-06T03:57:33.249Z,6.95
2019-05-06T04:00:04.999Z,7.20
2019-05-06T04:02:33.957Z,8.35
2019-05-06T04:05:03.939Z,7.08
2019-05-06T04:07:34.123Z,8.43
2019-05-06T04:10:03.517Z,7.55
2019-05-06T04:12:34.178Z,6.62
2019-05-06T04:15:03.982Z,7.58
2019-05-06T04:17:44.183Z,7.65
2019-05-06T04:20:23.600Z,6.97
2019-05-06T04:22:53.260Z,7.00
2019-05-06T04:25:43.461Z,7.53
2019-05-06T04:28:25.841Z,7.40
2019-05-06T04:30:54.985Z,6.70
2019-05-06T04:33:24.022Z,6.70
2019-05-06T04:35:54.176Z,6.72
2019-05-06T04:38:23.693Z,6.33
2019-05-06T04:40:54.130Z,7.37
2019-05-06T04:43:26.747Z,7.80
2019-05-06T04:45:54.217Z,6.35
2019-05-06T04:48:23.814Z,6.75
2019-05-06T04:50:53.615Z,6.50
2019-05-06T04:53:26.407Z,7.15
2019-05-06T04:55:53.890Z,6.80
2019-05-06T04:58:23.430Z,7.62
2019-05-06T05:00:53.124Z,8.13
2019-05-06T05:03:22.782Z,6.55
2019-05-06T05:05:53.049Z,7.25
2019-05-06T05:08:23.856Z,7.25
2019-05-06T05:11:03.593Z,7.50
2019-05-06T05:13:34.199Z,7.33
2019-05-06T05:16:22.188Z,6.62
2019-05-06T05:19:07.314Z,6.42
2019-05-06T05:21:35.972Z,7.37
2019-05-06T05:24:04.442Z,7.87
2019-05-06T05:26:32.845Z,6.53
2019-05-06T05:29:02.821Z,7.08
2019-05-06T05:31:33.168Z,6.03
2019-05-06T05:34:02.229Z,6.70
2019-05-06T05:36:32.816Z,7.00
2019-05-06T05:39:03.284Z,9.40
2019-05-06T05:41:33.184Z,6.92
2019-05-06T05:44:03.942Z,7.80
2019-05-06T05:46:33.052Z,8.13
2019-05-06T05:49:03.429Z,7.65
2019-05-06T05:51:32.406Z,9.10
2019-05-06T05:54:02.198Z,7.65
2019-05-06T05:56:33.036Z,8.95
2019-05-06T05:59:03.297Z,8.03
2019-05-06T06:01:32.640Z,9.80
2019-05-06T06:04:03.031Z,9.20
2019-05-06T06:06:33.204Z,9.23
2019-05-06T06:09:03.132Z,9.28
2019-05-06T06:11:33.346Z,8.83
2019-05-06T06:14:03.618Z,8.58
2019-05-06T06:16:33.742Z,9.45
2019-05-06T06:19:22.049Z,8.55
2019-05-06T06:21:52.399Z,8.98
2019-05-06T06:24:25.282Z,9.78
2019-05-06T06:26:53.686Z,9.93
2019-05-06T06:29:22.798Z,9.85
2019-05-06T06:32:09.719Z,10.45
2019-05-06T06:34:52.003Z,10.78
2019-05-06T06:37:27.247Z,9.38
2019-05-06T06:39:56.200Z,9.53
2019-05-06T06:42:24.935Z,8.60
2019-05-06T06:44:54.016Z,10.13
2019-05-06T06:47:22.653Z,9.58
2019-05-06T06:49:53.264Z,10.28
2019-05-06T06:52:23.056Z,9.70
2019-05-06T06:54:52.653Z,9.40
2019-05-06T06:57:25.420Z,9.78
2019-05-06T07:00:07.609Z,9.98
2019-05-06T07:02:38.746Z,9.10
2019-05-06T07:05:24.910Z,9.15
2019-05-06T07:07:46.763Z,10.20
2019-05-06T07:10:32.401Z,8.55
2019-05-06T07:13:02.907Z,8.38
2019-05-06T07:15:33.415Z,8.65
2019-05-06T07:18:02.292Z,9.20
2019-05-06T07:20:38.555Z,6.85
2019-05-06T07:23:26.413Z,6.50
2019-05-06T07:25:55.114Z,6.62
2019-05-06T07:28:24.495Z,7.08
2019-05-06T07:30:54.307Z,7.17
2019-05-06T07:33:23.097Z,5.58
2019-05-06T07:35:52.999Z,6.62
2019-05-06T07:38:23.080Z,7.55
2019-05-06T07:40:53.566Z,6.72
2019-05-06T07:43:35.608Z,6.47
2019-05-06T07:46:06.128Z,6.10
2019-05-06T07:48:34.568Z,6.90
2019-05-06T07:51:03.183Z,5.73
2019-05-06T07:53:32.096Z,5.03
2019-05-06T07:56:03.496Z,4.37
2019-05-06T07:58:32.257Z,5.33
2019-05-06T08:01:02.742Z,5.60
2019-05-06T08:03:33.003Z,4.93
2019-05-06T08:06:02.648Z,5.53
2019-05-06T08:08:33.514Z,5.90
2019-05-06T08:11:02.707Z,4.80
2019-05-06T08:13:32.265Z,5.40
2019-05-06T08:16:02.198Z,5.40
2019-05-06T08:18:32.962Z,5.20
2019-05-06T08:21:02.691Z,5.93
2019-05-06T08:23:38.681Z,5.27
2019-05-06T08:26:12.878Z,5.12
2019-05-06T08:28:41.462Z,4.55
2019-05-06T08:31:08.291Z,5.12
2019-05-06T08:33:36.991Z,6.35
2019-05-06T08:36:11.760Z,4.70
2019-05-06T08:38:55.009Z,4.70
2019-05-06T08:41:23.549Z,4.67
2019-05-06T08:43:52.860Z,5.15
2019-05-06T08:46:23.450Z,4.50
2019-05-06T08:48:52.575Z,4.58
2019-05-06T08:51:25.798Z,4.08
2019-05-06T08:53:59.158Z,4.22
2019-05-06T08:56:28.063Z,4.50
2019-05-06T08:58:56.563Z,4.60
2019-05-06T09:01:26.869Z,4.62
2019-05-06T09:04:08.298Z,4.85
2019-05-06T09:06:30.193Z,4.28
2019-05-06T09:08:56.904Z,5.07
2019-05-06T09:11:25.934Z,4.73
2019-05-06T09:13:54.511Z,4.90
2019-05-06T09:16:23.356Z,4.93
2019-05-06T09:18:53.377Z,4.00
2019-05-06T09:21:22.615Z,4.47
2019-05-06T09:23:53.155Z,3.80
2019-05-06T09:26:28.875Z,4.05
2019-05-06T09:28:59.365Z,4.20
2019-05-06T09:31:32.050Z,4.58
2019-05-06T09:34:13.164Z,3.55
2019-05-06T09:36:51.696Z,3.30
2019-05-06T09:39:14.603Z,3.75
2019-05-06T09:41:46.505Z,4.03
2019-05-06T09:44:13.217Z,3.87
2019-05-06T09:46:43.261Z,3.95
2019-05-06T09:49:15.987Z,3.50
2019-05-06T09:51:46.605Z,3.17
2019-05-06T09:54:16.673Z,4.30
2019-05-06T09:56:55.246Z,4.80
2019-05-06T09:59:23.652Z,4.28
2019-05-06T10:01:52.768Z,4.42
2019-05-06T10:04:21.499Z,4.55
2019-05-06T10:06:57.247Z,4.45
2019-05-06T10:09:20.255Z,4.15
2019-05-06T10:11:48.757Z,4.55
2019-05-06T10:14:17.195Z,4.55
2019-05-06T10:16:45.902Z,4.60
2019-05-06T10:19:14.651Z,4.40
2019-05-06T10:21:43.231Z,5.00
2019-05-06T10:24:11.902Z,5.30
2019-05-06T10:26:43.189Z,5.70
2019-05-06T10:29:34.983Z,4.87
2019-05-06T10:32:07.744Z,3.90
2019-05-06T10:34:37.982Z,4.20
2019-05-06T10:37:22.289Z,4.50
2019-05-06T10:39:56.962Z,4.53
2019-05-06T10:42:28.616Z,5.00
2019-05-06T10:45:05.902Z,4.60
2019-05-06T10:47:34.442Z,4.97
2019-05-06T10:50:02.877Z,4.30
2019-05-06T10:52:47.951Z,5.77
2019-05-06T10:55:16.604Z,4.20
2019-05-06T10:57:46.793Z,4.07
2019-05-06T11:00:15.775Z,4.90
2019-05-06T11:02:49.022Z,4.50
2019-05-06T11:05:17.747Z,3.57
2019-05-06T11:07:46.580Z,3.63
2019-05-06T11:10:23.714Z,4.00
2019-05-06T11:12:45.349Z,4.40
2019-05-06T11:15:14.089Z,4.20
2019-05-06T11:17:43.663Z,3.93
2019-05-06T11:20:14.032Z,4.10
2019-05-06T11:22:43.608Z,3.20
2019-05-06T11:25:12.413Z,4.30
2019-05-06T11:27:42.565Z,3.37
2019-05-06T11:30:13.129Z,4.20
2019-05-06T11:32:44.458Z,3.70
2019-05-06T11:35:17.687Z,3.87
2019-05-06T11:37:50.765Z,4.23
2019-05-06T11:40:18.619Z,4.40
2019-05-06T11:42:47.118Z,5.35
2019-05-06T11:45:15.927Z,4.63
2019-05-06T11:47:44.938Z,5.03
2019-05-06T11:50:13.608Z,5.55
2019-05-06T11:52:43.401Z,5.92
2019-05-06T11:55:13.896Z,5.05
2019-05-06T11:57:44.656Z,5.53
2019-05-06T12:00:15.703Z,4.77
2019-05-06T12:02:48.090Z,5.40
2019-05-06T12:05:14.772Z,6.10
2019-05-06T12:07:53.151Z,5.25
2019-05-06T12:10:13.665Z,6.35
2019-05-06T12:12:43.996Z,4.75
2019-05-06T12:15:13.289Z,5.33
2019-05-06T12:17:42.268Z,5.00
2019-05-06T12:20:13.169Z,6.10
2019-05-06T12:22:42.481Z,6.07
2019-05-06T12:25:15.268Z,5.60
2019-05-06T12:27:45.265Z,5.67
2019-05-06T12:30:22.755Z,5.70
2019-05-06T12:33:04.166Z,4.37
2019-05-06T12:35:34.317Z,6.43
2019-05-06T12:38:06.721Z,5.58
2019-05-06T12:40:34.849Z,6.23
2019-05-06T12:43:22.570Z,7.50
2019-05-06T12:45:58.553Z,6.78
2019-05-06T12:48:28.610Z,7.30
2019-05-06T12:50:58.769Z,7.40
2019-05-06T12:53:27.267Z,6.72
2019-05-06T12:55:55.762Z,9.10
2019-05-06T12:58:24.429Z,7.72
2019-05-06T13:00:54.234Z,7.87
2019-05-06T13:03:23.577Z,8.88
2019-05-06T13:05:56.830Z,8.25
2019-05-06T13:08:32.491Z,7.22
2019-05-06T13:10:55.486Z,8.33
2019-05-06T13:13:23.977Z,8.23
2019-05-06T13:15:52.916Z,7.13
2019-05-06T13:18:23.140Z,6.67
2019-05-06T13:20:52.623Z,7.23
2019-05-06T13:23:35.121Z,6.10
2019-05-06T13:26:02.967Z,6.87
2019-05-06T13:28:33.478Z,7.50
2019-05-06T13:31:16.052Z,6.10
2019-05-06T13:33:44.339Z,7.30
2019-05-06T13:36:13.406Z,6.37
2019-05-06T13:38:42.694Z,5.83
2019-05-06T13:41:12.678Z,7.47
2019-05-06T13:43:43.663Z,7.07
2019-05-06T13:46:13.983Z,6.60
2019-05-06T13:48:53.282Z,7.60
2019-05-06T13:51:23.411Z,7.25
2019-05-06T13:53:52.910Z,7.10
2019-05-06T13:56:21.618Z,6.75
2019-05-06T13:58:52.425Z,7.15
2019-05-06T14:01:23.045Z,8.35
2019-05-06T14:03:52.480Z,8.93
2019-05-06T14:06:21.019Z,8.30
2019-05-06T14:08:49.473Z,7.53
2019-05-06T14:11:18.400Z,7.58
2019-05-06T14:13:47.844Z,7.42
2019-05-06T14:16:16.350Z,7.53
2019-05-06T14:18:45.119Z,7.58
2019-05-06T14:21:14.019Z,8.45
2019-05-06T14:23:44.341Z,8.00
2019-05-06T14:26:14.603Z,8.70
2019-05-06T14:29:02.372Z,8.23
2019-05-06T14:31:36.806Z,8.68
2019-05-06T14:34:05.199Z,7.97
2019-05-06T14:36:33.994Z,8.10
2019-05-06T14:39:04.917Z,7.70
2019-05-06T14:41:32.926Z,7.72
2019-05-06T14:44:04.918Z,7.67
2019-05-06T14:46:33.422Z,7.25
2019-05-06T14:49:04.241Z,7.53
2019-05-06T14:51:33.851Z,8.10
2019-05-06T14:54:03.938Z,7.67
2019-05-06T14:56:42.625Z,7.55
2019-05-06T14:59:12.463Z,6.67
2019-05-06T15:01:45.100Z,11.73
2019-05-06T15:04:12.547Z,7.45
2019-05-06T15:06:42.535Z,7.12
2019-05-06T15:09:13.417Z,5.73
2019-05-06T15:11:43.380Z,7.58
2019-05-06T15:14:13.040Z,6.53
2019-05-06T15:16:42.335Z,6.70
2019-05-06T15:19:16.751Z,6.53
2019-05-06T15:21:45.197Z,7.12
2019-05-06T15:24:14.541Z,8.10
2019-05-06T15:26:43.142Z,7.37
2019-05-06T15:29:12.643Z,5.92
2019-05-06T15:31:49.033Z,6.20
2019-05-06T15:34:19.244Z,6.30
2019-05-06T15:36:58.325Z,6.10
2019-05-06T15:39:26.768Z,6.15
2019-05-06T15:41:55.224Z,6.57
2019-05-06T15:44:23.625Z,6.08
2019-05-06T15:46:52.800Z,6.90
2019-05-06T15:49:22.344Z,6.78
2019-05-06T15:51:52.274Z,6.30
2019-05-06T15:54:22.650Z,7.35
2019-05-06T15:56:53.274Z,7.87
2019-05-06T15:59:22.969Z,6.92
2019-05-06T16:01:53.163Z,6.25
2019-05-06T16:04:22.905Z,6.33
2019-05-06T16:06:52.939Z,7.10
2019-05-06T16:09:23.482Z,5.42
2019-05-06T16:11:53.491Z,6.80
2019-05-06T16:14:23.030Z,6.33
2019-05-06T16:16:52.828Z,6.65
2019-05-06T16:19:22.781Z,6.40
2019-05-06T16:21:52.352Z,6.83
2019-05-06T16:24:28.676Z,7.40
2019-05-06T16:26:57.162Z,7.37
2019-05-06T16:29:32.140Z,7.05
2019-05-06T16:32:02.166Z,6.12
2019-05-06T16:34:32.373Z,7.15
2019-05-06T16:37:01.937Z,5.50
2019-05-06T16:39:32.549Z,5.87
2019-05-06T16:42:03.635Z,7.45
2019-05-06T16:44:31.414Z,7.50
2019-05-06T16:46:59.820Z,6.87
2019-05-06T16:49:28.222Z,5.72
2019-05-06T16:51:56.895Z,7.10
2019-05-06T16:54:26.213Z,7.35
2019-05-06T16:57:06.574Z,6.80
2019-05-06T16:59:34.982Z,6.45
2019-05-06T17:02:05.059Z,6.40
2019-05-06T17:04:46.695Z,6.10
2019-05-06T17:07:15.101Z,6.62
2019-05-06T17:09:43.511Z,5.20
2019-05-06T17:12:12.781Z,7.72
2019-05-06T17:14:42.834Z,6.30
2019-05-06T17:17:11.412Z,5.00
2019-05-06T17:19:42.070Z,5.20
2019-05-06T17:22:12.216Z,5.80
2019-05-06T17:24:42.036Z,6.55
2019-05-06T17:27:12.053Z,5.78
2019-05-06T17:29:51.412Z,6.45
2019-05-06T17:32:24.430Z,6.58
2019-05-06T17:34:57.446Z,6.30
2019-05-06T17:37:42.765Z,6.45
2019-05-06T17:40:14.021Z,7.55
2019-05-06T17:42:43.055Z,7.28
2019-05-06T17:45:29.390Z,7.17
2019-05-06T17:48:02.915Z,8.10
2019-05-06T17:50:32.710Z,8.03
2019-05-06T17:53:01.822Z,9.58
2019-05-06T17:55:32.258Z,10.28
2019-05-06T17:58:02.429Z,10.13
2019-05-06T18:00:32.332Z,10.50
2019-05-06T18:03:02.522Z,11.55
2019-05-06T18:05:32.534Z,10.72
2019-05-06T18:08:02.893Z,9.78
2019-05-06T18:10:33.506Z,11.45
2019-05-06T18:13:03.124Z,10.72
2019-05-06T18:15:32.625Z,10.45
2019-05-06T18:18:02.159Z,11.45
2019-05-06T18:20:33.351Z,10.15
2019-05-06T18:23:02.059Z,12.18
2019-05-06T18:25:32.819Z,10.48
2019-05-06T18:28:00.857Z,10.43
2019-05-06T18:30:33.666Z,11.05
2019-05-06T18:32:59.698Z,10.98
2019-05-06T18:35:28.128Z,11.83
2019-05-06T18:37:56.515Z,11.78
2019-05-06T18:40:24.979Z,11.43
2019-05-06T18:42:53.624Z,11.38
2019-05-06T18:45:22.163Z,11.93
2019-05-06T18:47:53.023Z,12.13
2019-05-06T18:50:22.028Z,12.23
2019-05-06T18:52:52.854Z,11.48
2019-05-06T18:55:22.356Z,11.50
2019-05-06T18:57:52.784Z,10.60
2019-05-06T19:00:22.498Z,11.83
2019-05-06T19:02:52.217Z,10.88
2019-05-06T19:05:27.127Z,11.10
2019-05-06T19:07:55.622Z,11.53
2019-05-06T19:10:28.338Z,11.65
2019-05-06T19:12:56.744Z,12.78
2019-05-06T19:15:25.974Z,11.97
2019-05-06T19:17:54.366Z,12.25
2019-05-06T19:20:24.457Z,12.78
2019-05-06T19:22:53.653Z,12.53
2019-05-06T19:25:22.684Z,11.95
2019-05-06T19:27:53.091Z,12.10
2019-05-06T19:30:22.453Z,11.57
2019-05-06T19:32:52.724Z,14.60
2019-05-06T19:35:24.977Z,15.13
2019-05-06T19:37:53.473Z,15.45
2019-05-06T19:40:22.897Z,11.85
2019-05-06T19:42:53.278Z,12.78
2019-05-06T19:45:22.432Z,11.95
2019-05-06T19:47:52.303Z,13.03
2019-05-06T19:50:23.628Z,12.93
2019-05-06T19:52:52.855Z,12.30
2019-05-06T19:55:23.069Z,11.53
2019-05-06T19:57:52.642Z,12.00
2019-05-06T20:00:22.853Z,12.10
2019-05-06T20:02:52.132Z,12.78
2019-05-06T20:05:25.112Z,12.75
2019-05-06T20:08:13.413Z,13.22
2019-05-06T20:10:43.453Z,12.43
2019-05-06T20:13:13.555Z,12.55
2019-05-06T20:15:42.854Z,14.03
2019-05-06T20:18:11.390Z,13.53
2019-05-06T20:20:42.089Z,12.82
2019-05-06T20:23:12.363Z,13.80
2019-05-06T20:25:51.932Z,13.65
2019-05-06T20:28:22.572Z,12.70
2019-05-06T20:30:52.336Z,14.35
2019-05-06T20:33:22.710Z,12.65
2019-05-06T20:35:52.601Z,14.25
2019-05-06T20:38:23.193Z,12.05
2019-05-06T20:40:52.952Z,11.40
2019-05-06T20:43:23.906Z,13.15
2019-05-06T20:45:52.130Z,12.45
2019-05-06T20:48:23.223Z,13.78
2019-05-06T20:50:52.373Z,12.73
2019-05-06T20:53:22.610Z,12.43
2019-05-06T20:55:53.053Z,12.58
2019-05-06T20:58:22.972Z,11.35
2019-05-06T21:00:52.138Z,13.20
2019-05-06T21:03:22.104Z,12.85
2019-05-06T21:05:50.812Z,12.50
2019-05-06T21:08:19.366Z,13.55
2019-05-06T21:10:49.721Z,12.55
2019-05-06T21:13:29.443Z,12.47
2019-05-06T21:15:48.018Z,12.10
2019-05-06T21:18:16.498Z,12.93
2019-05-06T21:20:45.156Z,14.30
2019-05-06T21:23:13.817Z,12.85
2019-05-06T21:25:43.079Z,13.15
2019-05-06T21:28:12.208Z,12.07
2019-05-06T21:30:42.792Z,13.18
2019-05-06T21:33:12.423Z,13.45
2019-05-06T21:35:42.410Z,12.78
2019-05-06T21:38:12.111Z,11.93
2019-05-06T21:40:43.177Z,13.32
2019-05-06T21:43:13.074Z,12.73
2019-05-06T21:45:42.386Z,13.60
2019-05-06T21:48:13.414Z,13.22
2019-05-06T21:50:42.644Z,13.13
2019-05-06T21:53:14.343Z,14.45
2019-05-06T21:55:41.546Z,12.65
2019-05-06T21:58:12.251Z,11.48
2019-05-06T22:00:45.495Z,12.10
2019-05-06T22:03:13.928Z,11.88
2019-05-06T22:05:42.401Z,12.15
2019-05-06T22:08:12.842Z,12.43
2019-05-06T22:10:42.117Z,12.95
2019-05-06T22:13:14.254Z,11.80
2019-05-06T22:15:42.078Z,11.45
2019-05-06T22:18:12.509Z,12.37
2019-05-06T22:20:59.426Z,13.72
2019-05-06T22:23:29.506Z,13.65
2019-05-06T22:26:11.087Z,12.55
2019-05-06T22:28:28.095Z,12.58
2019-05-06T22:30:56.489Z,12.53
2019-05-06T22:33:24.974Z,12.80
2019-05-06T22:35:54.966Z,12.00
2019-05-06T22:38:23.554Z,11.83
2019-05-06T22:40:53.011Z,11.73
2019-05-06T22:43:22.008Z,12.45
2019-05-06T22:45:53.194Z,11.50
2019-05-06T22:48:22.183Z,11.22
2019-05-06T22:50:52.923Z,11.35
2019-05-06T22:53:22.187Z,11.60
2019-05-06T22:55:51.653Z,12.53
2019-05-06T22:58:22.675Z,13.58
2019-05-06T23:00:53.713Z,11.75
2019-05-06T23:03:31.722Z,11.30
2019-05-06T23:06:02.417Z,11.05
2019-05-06T23:08:32.467Z,11.57
2019-05-06T23:11:01.475Z,13.10
2019-05-06T23:13:30.068Z,11.70
2019-05-06T23:15:58.627Z,11.80
2019-05-06T23:18:27.291Z,12.15
2019-05-06T23:20:55.832Z,12.23
2019-05-06T23:23:24.389Z,12.45
2019-05-06T23:26:12.959Z,12.33
2019-05-06T23:28:41.610Z,12.68
2019-05-06T23:31:11.497Z,12.80
2019-05-06T23:33:40.018Z,11.73
2019-05-06T23:36:08.601Z,12.20
2019-05-06T23:39:13.386Z,12.35
2019-05-06T23:42:18.242Z,10.95
2019-05-06T23:45:26.095Z,12.10
2019-05-06T23:48:30.981Z,11.73
2019-05-06T23:51:36.151Z,10.98
2019-05-06T23:54:42.753Z,11.70
2019-05-06T23:57:09.873Z,11.50
2019-05-06T23:59:39.090Z,13.28
